Latest Weather Observations for Charleville

IDQ60801

Issued at 4:02 pm EST Wednesday 22 February 2017 (issued every 30 minutes, with the page automatically refreshed every 10 minutes)

About weather observations | Map of weather stations | Latest weather observations for QLD | Other Formats
Station Details ID: 044021 Name: CHARLEVILLE AERO Lat: -26.41 Lon: 146.26 Height: 301.6 m
Data from the previous 72 hours. | See also: Recent months at Charleville
Date/Time
EST
Temp
°C
App
Temp
°C
Dew
Point
°C
Rel
Hum
%
Delta-T
°C
Wind Press
QNH
hPa
Press
MSL
hPa
Rain since
9am
mm
Dir  Spd
km/h
Gust
km/h
Spd
kts
Gust
kts
22/03:30pm 36.5 35.0 10.6 21 15.4 NW 9 15 5 8 1012.3 1010.3 0.0
22/03:00pm 36.1 33.6 11.0 22 15.0 N 15 26 8 14 1012.7 1010.7 0.0
22/02:30pm 36.3 33.1 11.9 23 14.8 N 20 33 11 18 1013.1 1011.1 0.0
22/02:00pm 36.5 34.1 11.3 22 15.1 NW 15 30 8 16 1013.4 1011.4 0.0
22/01:30pm 34.6 33.0 11.7 25 13.7 ENE 11 26 6 14 1013.8 1011.8 0.0
22/01:00pm 36.0 33.1 12.3 24 14.4 NNW 19 33 10 18 1014.2 1012.2 0.0
22/12:30pm 34.5 31.4 11.6 25 13.7 NNE 19 30 10 16 1014.8 1012.8 0.0
22/12:00pm 33.8 30.7 12.2 27 13.0 N 20 32 11 17 1015.3 1013.3 0.0
22/11:30am 33.2 30.2 13.8 31 11.9 N 22 33 12 18 1015.6 1013.6 0.0
22/11:00am 33.3 29.8 13.4 30 12.2 N 24 35 13 19 1016.1 1014.1 0.0
22/10:30am 32.4 28.7 15.0 35 10.9 NNE 28 37 15 20 1016.4 1014.4 0.0
22/10:00am 30.5 26.3 14.6 38 9.8 N 30 41 16 22 1016.7 1014.7 0.0
22/09:30am 29.9 25.5 14.0 37 9.7 N 30 39 16 21 1016.9 1014.9 0.0
22/09:00am 28.5 24.4 12.8 38 9.3 NNE 26 32 14 17 1016.7 1014.7 0.0
22/08:30am 27.1 23.9 9.9 34 9.7 NNE 17 28 9 15 1016.7 1014.7 0.0
22/08:00am 24.4 22.1 5.7 30 9.6 NNE 7 11 4 6 1016.6 1014.6 0.0
22/07:30am 21.2 20.0 4.7 34 8.2 CALM 0 7 0 4 1016.5 1014.5 0.0
22/07:00am 18.6 17.5 5.1 41 6.6 CALM 0 0 0 0 1016.1 1014.1 0.0
22/06:30am 17.6 16.3 4.2 41 6.4 CALM 0 0 0 0 1015.9 1013.9 0.0
22/06:00am 17.6 16.2 3.5 39 6.7 CALM 0 0 0 0 1015.6 1013.6 0.0
22/05:30am 17.9 16.5 3.4 38 6.9 CALM 0 0 0 0 1015.4 1013.4 0.0
22/05:00am 18.5 16.7 3.2 36 7.2 SSE 2 6 1 3 1015.1 1013.1 0.0
22/04:30am 19.1 17.5 2.5 33 7.8 CALM 0 0 0 0 1014.9 1012.9 0.0
22/04:00am 19.6 16.8 2.0 31 8.2 ENE 6 9 3 5 1014.4 1012.4 0.0
22/03:30am 21.0 17.9 1.3 27 9.1 E 7 9 4 5 1014.3 1012.3 0.0
22/03:00am 23.9 19.8 2.1 24 10.5 E 13 15 7 8 1014.4 1012.4 0.0
22/02:30am 23.2 19.1 2.1 25 10.1 E 13 15 7 8 1014.4 1012.4 0.0
22/02:00am 22.5 18.8 2.6 27 9.6 ESE 11 13 6 7 1014.7 1012.7 0.0
22/01:30am 21.5 17.5 2.7 29 9.0 E 13 15 7 8 1014.9 1012.9 0.0
22/01:00am 22.0 20.4 2.2 27 9.4 CALM 0 0 0 0 1015.1 1013.1 0.0
22/12:30am 23.8 21.7 2.0 24 10.5 NNE 2 6 1 3 1015.3 1013.3 0.0
22/12:00am 25.2 21.4 2.0 22 11.3 SE 11 13 6 7 1015.4 1013.4 0.0
 
Date/Time
EST
Temp
°C
App
Temp
°C
Dew
Point
°C
Rel
Hum
%
Delta-T
°C
Wind Press
QNH
hPa
Press
MSL
hPa
Rain since
9am
mm
Dir  Spd
km/h
Gust
km/h
Spd
kts
Gust
kts
21/11:30pm 24.8 20.6 1.7 22 11.1 ESE 13 17 7 9 1015.5 1013.5 0.0
21/11:00pm 26.2 22.7 1.5 20 12.0 ESE 9 11 5 6 1015.7 1013.7 0.0
21/10:30pm 27.0 22.8 1.4 19 12.4 ESE 13 15 7 8 1015.7 1013.7 0.0
21/10:00pm 27.3 23.0 0.9 18 12.7 SE 13 15 7 8 1015.7 1013.7 0.0
21/09:30pm 27.2 23.2 0.8 18 12.7 SE 11 15 6 8 1015.9 1013.9 0.0
21/09:00pm 27.0 23.3 -0.1 17 12.8 ESE 9 11 5 6 1015.6 1013.6 0.0
21/08:30pm 28.1 24.4 -0.1 16 13.5 ESE 9 11 5 6 1015.2 1013.2 0.0
21/08:00pm 28.8 24.7 -0.4 15 13.9 ESE 11 11 6 6 1015.1 1013.1 0.0
21/07:30pm 29.4 25.6 -0.9 14 14.4 ESE 9 11 5 6 1015.0 1013.0 0.0
21/07:00pm 30.4 26.6 -1.1 13 15.0 SE 9 11 5 6 1014.7 1012.7 0.0
21/06:30pm 31.6 27.0 -1.2 12 15.7 SE 13 17 7 9 1014.2 1012.2 0.0
21/06:00pm 32.2 27.3 -0.8 12 16.0 SE 15 22 8 12 1013.9 1011.9 0.0
21/05:30pm 32.6 28.1 -0.5 12 16.2 SSE 13 17 7 9 1013.7 1011.7 0.0
21/05:00pm 33.2 28.7 0.0 12 16.4 E 13 22 7 12 1013.7 1011.7 0.0
21/04:30pm 33.0 28.9 -0.2 12 16.4 SE 11 17 6 9 1013.8 1011.8 0.0
21/04:00pm 33.0 28.1 -0.2 12 16.3 ESE 15 20 8 11 1013.9 1011.9 0.0
21/03:30pm 32.8 28.3 -0.3 12 16.3 SE 13 20 7 11 1013.8 1011.8 0.0
21/03:00pm 32.9 28.4 -0.2 12 16.3 SE 13 20 7 11 1014.1 1012.1 0.0
21/02:30pm 32.6 28.1 -0.5 12 16.2 SE 13 22 7 12 1014.4 1012.4 0.0
21/02:00pm 32.9 28.0 -0.2 12 16.3 SSE 15 28 8 15 1014.6 1012.5 0.0
21/01:30pm 32.0 28.2 -0.9 12 15.9 NE 9 15 5 8 1015.1 1013.1 0.0
21/01:00pm 32.5 27.8 0.6 13 15.9 NE 15 24 8 13 1015.7 1013.7 0.0
21/12:30pm 31.1 27.0 -0.5 13 15.3 NNE 11 20 6 11 1016.1 1014.1 0.0
21/12:00pm 31.6 27.1 -0.1 13 15.5 E 13 22 7 12 1016.2 1014.2 0.0
21/11:30am 30.5 25.9 -1.0 13 15.0 ESE 13 19 7 10 1016.5 1014.5 0.0
21/11:00am 30.1 26.0 -0.3 14 14.6 NE 11 17 6 9 1016.9 1014.9 0.0
21/10:30am 29.8 24.9 -0.5 14 14.5 ENE 15 20 8 11 1017.2 1015.2 0.0
21/10:00am 29.4 24.3 1.0 16 13.9 NE 17 24 9 13 1017.4 1015.4 0.0
21/09:30am 28.7 24.4 1.3 17 13.5 ENE 13 19 7 10 1017.3 1015.3 0.0
21/09:00am 28.1 23.5 1.6 18 13.0 ENE 15 22 8 12 1017.1 1015.1 0.0
21/08:30am 24.8 21.6 2.9 24 10.8 E 9 13 5 7 1017.0 1015.0 0.0
21/08:00am 21.4 18.6 2.2 28 9.1 SE 6 9 3 5 1016.8 1014.8 0.0
21/07:30am 19.3 16.4 1.3 30 8.2 ESE 6 7 3 4 1016.7 1014.7 0.0
21/07:00am 18.5 15.4 1.1 31 7.9 SSE 7 9 4 5 1016.3 1014.3 0.0
21/06:30am 17.0 14.4 1.0 34 7.1 NNW 4 9 2 5 1016.0 1014.0 0.0
21/06:00am 15.9 12.7 0.9 36 6.6 SE 7 9 4 5 1015.4 1013.4 0.0
21/05:30am 16.6 14.3 0.3 33 7.1 NNE 2 7 1 4 1015.6 1013.6 0.0
21/05:00am 18.0 15.3 0.6 31 7.8 NNE 4 9 2 5 1015.5 1013.5 0.0
21/04:30am 18.8 14.7 -0.1 28 8.4 SE 11 11 6 6 1015.2 1013.2 0.0
21/04:00am 19.5 15.4 0.0 27 8.7 SSE 11 13 6 7 1014.9 1012.9 0.0
21/03:30am 17.9 14.2 0.1 30 7.9 SSE 9 9 5 5 1014.4 1012.4 0.0
21/03:00am 18.1 14.8 -0.2 29 8.0 SSE 7 7 4 4 1014.4 1012.4 0.0
21/02:30am 18.9 15.6 0.0 28 8.4 E 7 7 4 4 1014.4 1012.4 0.0
21/02:00am 19.7 16.3 -0.9 25 9.1 SSE 7 9 4 5 1014.3 1012.3 0.0
21/01:30am 20.6 16.7 -1.2 23 9.6 SSE 9 11 5 6 1014.3 1012.3 0.0
21/01:00am 21.6 17.7 -1.6 21 10.2 SSE 9 9 5 5 1014.6 1012.5 0.0
21/12:30am 22.6 18.2 -2.2 19 10.9 SSE 11 15 6 8 1014.6 1012.5 0.0
21/12:00am 22.8 18.8 -2.0 19 11.0 SSE 9 11 5 6 1014.7 1012.7 0.0
 
Date/Time
EST
Temp
°C
App
Temp
°C
Dew
Point
°C
Rel
Hum
%
Delta-T
°C
Wind Press
QNH
hPa
Press
MSL
hPa
Rain since
9am
mm
Dir  Spd
km/h
Gust
km/h
Spd
kts
Gust
kts
20/11:30pm 23.3 18.2 -1.6 19 11.1 SSE 15 17 8 9 1015.0 1013.0 0.0
20/11:00pm 23.8 19.1 -1.9 18 11.5 SSE 13 15 7 8 1014.9 1012.9 0.0
20/10:30pm 24.4 19.4 -1.4 18 11.7 SSE 15 19 8 10 1014.9 1012.9 0.0
20/10:00pm 24.9 20.6 -1.8 17 12.0 SE 11 15 6 8 1014.7 1012.7 0.0
20/09:30pm 25.3 21.7 -2.3 16 12.4 SE 7 13 4 7 1014.4 1012.4 0.0
20/09:00pm 26.4 22.0 -2.3 15 13.0 SSE 11 15 6 8 1014.2 1012.2 0.0
20/08:30pm 26.2 22.4 -0.8 17 12.5 SE 9 19 5 10 1014.2 1012.2 0.0
20/08:00pm 26.0 22.2 -0.9 17 12.5 SSW 9 11 5 6 1013.6 1011.6 0.0
20/07:30pm 27.3 23.4 -1.6 15 13.3 SW 9 11 5 6 1013.3 1011.3 0.0
20/07:00pm 28.5 24.6 -1.6 14 14.0 SW 9 11 5 6 1012.9 1010.9 0.0
20/06:30pm 29.6 25.7 -1.7 13 14.7 SW 9 11 5 6 1012.5 1010.5 0.0
20/06:00pm 30.4 26.0 -2.2 12 15.3 SW 11 17 6 9 1012.1 1010.1 0.0
20/05:30pm 30.8 26.3 -3.0 11 15.6 SW 11 17 6 9 1011.8 1009.8 0.0
20/05:00pm 31.2 26.0 -2.7 11 15.8 SW 15 22 8 12 1011.5 1009.4 0.0
20/04:30pm 31.8 26.3 -2.3 11 16.1 SSW 17 24 9 13 1011.2 1009.1 0.0
20/04:00pm 31.7 26.9 -2.3 11 16.0 SW 13 24 7 13 1011.1 1009.0 0.0
20/03:30pm 31.9 27.5 -2.2 11 16.1 WSW 11 26 6 14 1011.1 1009.0 0.0
20/03:00pm 31.4 27.0 -2.6 11 15.9 SSW 11 22 6 12 1011.4 1009.3 0.0
20/02:30pm 31.6 27.4 -1.2 12 15.7 SSW 11 24 6 13 1011.5 1009.4 0.0
20/02:00pm 30.6 26.3 -2.0 12 15.3 E 11 19 6 10 1011.8 1009.8 0.0
20/01:30pm 30.1 25.5 -1.3 13 14.9 ESE 13 19 7 10 1012.2 1010.2 0.0
20/01:00pm 29.4 25.8 -1.9 13 14.6 ESE 7 15 4 8 1012.6 1010.6 0.0
20/12:30pm 29.5 23.5 -1.8 13 14.6 SSE 20 30 11 16 1013.0 1011.0 0.0
20/12:00pm 28.4 23.7 -1.6 14 14.0 S 13 28 7 15 1013.6 1011.6 0.0
20/11:30am 28.1 23.1 -0.9 15 13.6 S 15 26 8 14 1014.0 1012.0 0.0
20/11:00am 27.7 23.1 -1.3 15 13.5 SE 13 22 7 12 1014.4 1012.4 0.0
20/10:30am 27.0 22.2 -0.1 17 12.8 SE 15 26 8 14 1014.8 1012.8 0.0
20/10:00am 26.0 20.7 -0.9 17 12.4 SE 17 26 9 14 1015.2 1013.2 0.0
20/09:30am 25.3 20.5 0.0 19 11.8 SSE 15 24 8 13 1015.1 1013.1 0.0
20/09:00am 24.5 18.7 0.1 20 11.4 SE 20 28 11 15 1015.1 1013.1 0.0
20/08:30am 22.8 16.3 0.0 22 10.5 SSE 24 33 13 18 1015.0 1013.0 0.0
20/08:00am 21.4 15.7 0.6 25 9.6 SSE 20 30 11 16 1014.9 1012.9 0.0
20/07:30am 19.2 14.0 0.3 28 8.5 SSE 17 24 9 13 1014.8 1012.8 0.0
20/07:00am 17.4 13.4 0.6 32 7.5 SE 11 13 6 7 1014.7 1012.7 0.0
20/06:30am 16.7 11.5 0.4 33 7.2 SSE 17 20 9 11 1014.2 1012.2 0.0
20/06:00am 16.0 11.7 1.0 36 6.6 S 13 15 7 8 1013.6 1011.6 0.0
20/05:30am 15.8 12.0 1.5 38 6.4 S 11 13 6 7 1013.5 1011.5 0.0
20/05:00am 15.3 12.0 2.5 42 5.8 S 9 11 5 6 1013.4 1011.4 0.0
20/04:30am 15.0 11.9 3.5 46 5.3 SSW 9 11 5 6 1013.2 1011.2 0.0
20/04:00am 15.4 12.8 3.2 44 5.6 SSE 6 6 3 3 1013.1 1011.1 0.0
20/03:30am 16.1 13.5 3.2 42 6.0 SSE 6 7 3 4 1012.6 1010.6 0.0
20/03:00am 16.8 14.6 3.1 40 6.4 S 4 7 2 4 1012.5 1010.5 0.0
20/02:30am 17.0 13.4 3.0 39 6.5 S 11 13 6 7 1012.2 1010.2 0.0
20/02:00am 16.1 13.4 3.9 44 5.7 SSE 7 9 4 5 1012.3 1010.3 0.0
20/01:30am 16.4 14.6 3.5 42 6.0 SSE 2 7 1 4 1012.2 1010.2 0.0
20/01:00am 17.5 14.6 2.7 37 6.9 SSE 7 11 4 6 1012.2 1010.2 0.0
20/12:30am 18.0 15.0 3.9 39 6.7 E 9 13 5 7 1012.4 1010.4 0.0
20/12:00am 18.4 15.1 2.7 35 7.3 S 9 11 5 6 1012.4 1010.4 0.0
 
Date/Time
EST
Temp
°C
App
Temp
°C
Dew
Point
°C
Rel
Hum
%
Delta-T
°C
Wind Press
QNH
hPa
Press
MSL
hPa
Rain since
9am
mm
Dir  Spd
km/h
Gust
km/h
Spd
kts
Gust
kts
19/11:30pm 19.8 17.3 1.7 30 8.4 SSE 4 7 2 4 1012.2 1010.2 0.0
19/11:00pm 21.7 17.5 1.4 26 9.5 S 13 17 7 9 1011.9 1009.9 0.0
19/10:30pm 21.8 18.0 2.0 27 9.4 S 11 13 6 7 1011.8 1009.8 0.0
19/10:00pm 21.5 18.2 2.7 29 9.0 S 9 11 5 6 1011.8 1009.8 0.0
19/09:30pm 21.1 17.9 3.3 31 8.6 S 9 9 5 5 1011.5 1009.4 0.0
19/09:00pm 22.5 19.6 2.6 27 9.6 SSE 7 7 4 4 1010.9 1008.9 0.0
19/08:30pm 24.3 21.0 2.5 24 10.6 S 9 11 5 6 1010.4 1008.4 0.0
19/08:00pm 25.6 21.9 2.3 22 11.4 S 11 13 6 7 1009.7 1007.7 0.0
19/07:30pm 26.9 22.9 2.7 21 12.0 S 13 15 7 8 1009.3 1007.3 0.0
19/07:00pm 28.3 24.4 3.2 20 12.7 S 13 24 7 13 1009.0 1007.0 0.0
19/06:30pm 29.4 24.2 2.6 18 13.5 S 19 28 10 15 1008.6 1006.5 0.0
19/06:00pm 30.1 25.0 3.2 18 13.8 SSW 19 32 10 17 1008.1 1006.0 0.0
19/05:30pm 30.5 25.5 3.5 18 13.9 S 19 32 10 17 1008.0 1005.9 0.0
19/05:00pm 30.8 26.7 4.5 19 13.8 SW 15 22 8 12 1008.0 1005.9 0.0
19/04:30pm 30.6 27.0 5.1 20 13.5 WSW 13 26 7 14 1008.0 1005.9 0.0

Other Formats:

Comma delimited format used in spreadsheet applications
http://www.bom.gov.au/fwo/IDQ60801/IDQ60801.94510.axf

JavaScript Object Notation format (JSON) in row-major order
http://www.bom.gov.au/fwo/IDQ60801/IDQ60801.94510.json